TimeCDT,TemperatureF,Dew PointF,Humidity,Sea Level PressureIn,VisibilityMPH,Wind Direction,Wind SpeedMPH,Gust SpeedMPH,PrecipitationIn,Events,Conditions,WindDirDegrees,DateUTC
12:16 AM,73.4,59.0,61,29.89,10.0,SSW,9.2,-,N/A,,Mostly Cloudy,210,2013-06-21 05:16:00
12:53 AM,78.1,48.9,36,29.73,10.0,SSW,24.2,-,N/A,,Scattered Clouds,200,2013-06-21 05:53:00
1:53 AM,75.0,48.9,40,29.73,10.0,SSW,13.8,-,N/A,,Clear,200,2013-06-21 06:53:00
2:53 AM,78.1,48.9,36,29.72,10.0,SW,20.7,29.9,N/A,,Clear,220,2013-06-21 07:53:00
3:53 AM,75.0,51.1,43,29.74,10.0,SSW,16.1,-,N/A,,Clear,210,2013-06-21 08:53:00
4:53 AM,73.9,52.0,46,29.75,10.0,WSW,16.1,-,N/A,,Clear,240,2013-06-21 09:53:00
5:53 AM,71.1,54.0,55,29.78,10.0,SW,9.2,-,N/A,,Clear,230,2013-06-21 10:53:00
6:53 AM,73.0,55.9,55,29.75,10.0,SW,17.3,24.2,N/A,,Clear,230,2013-06-21 11:53:00
7:53 AM,75.9,55.9,50,29.73,10.0,SW,21.9,-,N/A,,Clear,230,2013-06-21 12:53:00
8:53 AM,77.0,59.0,54,29.78,10.0,SSE,11.5,20.7,N/A,,Clear,160,2013-06-21 13:53:00
9:53 AM,82.0,60.1,47,29.77,10.0,South,18.4,27.6,N/A,,Clear,180,2013-06-21 14:53:00
10:53 AM,87.1,55.9,35,29.76,10.0,South,24.2,34.5,N/A,,Clear,190,2013-06-21 15:53:00
11:53 AM,87.1,61.0,41,29.75,10.0,South,21.9,32.2,N/A,,Clear,190,2013-06-21 16:53:00
12:53 PM,93.9,55.0,27,29.72,10.0,South,26.5,35.7,N/A,,Clear,190,2013-06-21 17:53:00
1:53 PM,91.0,64.9,42,29.72,10.0,South,19.6,33.4,N/A,,Clear,180,2013-06-21 18:53:00
2:53 PM,91.9,64.0,39,29.70,10.0,South,23.0,34.5,N/A,,Clear,170,2013-06-21 19:53:00
3:53 PM,93.0,64.9,39,29.69,10.0,South,25.3,36.8,N/A,,Clear,170,2013-06-21 20:53:00
4:53 PM,93.9,61.0,33,29.67,10.0,South,31.1,39.1,N/A,,Clear,180,2013-06-21 21:53:00
5:53 PM,93.0,60.1,33,29.66,10.0,South,27.6,41.4,N/A,,Clear,170,2013-06-21 22:53:00
6:53 PM,91.0,63.0,39,29.65,10.0,South,24.2,41.4,N/A,,Clear,170,2013-06-21 23:53:00
7:53 PM,89.1,64.0,43,29.66,10.0,South,26.5,38.0,N/A,,Clear,170,2013-06-22 00:53:00
8:53 PM,84.9,64.0,49,29.66,10.0,South,23.0,33.4,N/A,,Clear,170,2013-06-22 01:53:00
9:53 PM,82.9,63.0,51,29.68,10.0,South,21.9,34.5,N/A,,Clear,170,2013-06-22 02:53:00
10:53 PM,81.0,62.1,52,29.69,10.0,South,21.9,32.2,N/A,,Clear,170,2013-06-22 03:53:00
11:53 PM,80.1,62.1,54,29.70,10.0,South,19.6,28.8,N/A,,Clear,170,2013-06-22 04:53:00